sensor_id;sensor_type;location;lat;lon;timestamp;P1;durP1;ratioP1;P2;durP2;ratioP2
9042;SDS011;4556;49.150;8.808;2023-03-23T00:02:45;1.23;;;0.70;;
9042;SDS011;4556;49.150;8.808;2023-03-23T00:05:12;1.13;;;0.90;;
9042;SDS011;4556;49.150;8.808;2023-03-23T00:07:39;1.40;;;0.80;;
9042;SDS011;4556;49.150;8.808;2023-03-23T00:10:10;1.33;;;0.93;;
9042;SDS011;4556;49.150;8.808;2023-03-23T00:12:38;0.70;;;0.60;;
9042;SDS011;4556;49.150;8.808;2023-03-23T00:15:28;1.03;;;0.70;;
9042;SDS011;4556;49.150;8.808;2023-03-23T00:17:59;2.13;;;0.80;;
9042;SDS011;4556;49.150;8.808;2023-03-23T00:20:29;2.43;;;1.00;;
9042;SDS011;4556;49.150;8.808;2023-03-23T00:23:02;1.03;;;0.90;;
9042;SDS011;4556;49.150;8.808;2023-03-23T00:25:29;0.97;;;0.80;;
9042;SDS011;4556;49.150;8.808;2023-03-23T00:28:18;1.77;;;0.90;;
9042;SDS011;4556;49.150;8.808;2023-03-23T00:30:53;1.00;;;0.83;;
9042;SDS011;4556;49.150;8.808;2023-03-23T00:33:23;2.10;;;0.80;;
9042;SDS011;4556;49.150;8.808;2023-03-23T00:35:53;1.10;;;0.80;;
9042;SDS011;4556;49.150;8.808;2023-03-23T00:38:26;1.27;;;0.80;;
9042;SDS011;4556;49.150;8.808;2023-03-23T00:41:02;1.17;;;0.80;;
9042;SDS011;4556;49.150;8.808;2023-03-23T00:43:45;2.20;;;0.90;;
9042;SDS011;4556;49.150;8.808;2023-03-23T00:46:15;1.43;;;0.90;;
9042;SDS011;4556;49.150;8.808;2023-03-23T00:48:47;0.80;;;0.80;;
9042;SDS011;4556;49.150;8.808;2023-03-23T00:51:15;3.27;;;0.90;;
9042;SDS011;4556;49.150;8.808;2023-03-23T00:53:43;0.93;;;0.70;;
9042;SDS011;4556;49.150;8.808;2023-03-23T00:56:13;1.10;;;0.67;;
9042;SDS011;4556;49.150;8.808;2023-03-23T00:58:51;0.93;;;0.80;;
9042;SDS011;4556;49.150;8.808;2023-03-23T01:01:19;1.43;;;0.83;;
9042;SDS011;4556;49.150;8.808;2023-03-23T01:06:32;1.00;;;0.70;;
9042;SDS011;4556;49.150;8.808;2023-03-23T01:09:04;1.63;;;0.63;;
9042;SDS011;4556;49.150;8.808;2023-03-23T01:11:36;0.93;;;0.63;;
9042;SDS011;4556;49.150;8.808;2023-03-23T01:14:07;0.80;;;0.80;;
9042;SDS011;4556;49.150;8.808;2023-03-23T01:16:34;1.60;;;0.90;;
9042;SDS011;4556;49.150;8.808;2023-03-23T01:19:03;1.30;;;0.90;;
9042;SDS011;4556;49.150;8.808;2023-03-23T01:21:30;1.10;;;0.90;;
9042;SDS011;4556;49.150;8.808;2023-03-23T01:24:03;0.80;;;0.80;;
9042;SDS011;4556;49.150;8.808;2023-03-23T01:26:38;1.80;;;0.80;;
9042;SDS011;4556;49.150;8.808;2023-03-23T01:29:05;1.20;;;0.80;;
9042;SDS011;4556;49.150;8.808;2023-03-23T01:31:32;1.53;;;1.00;;
9042;SDS011;4556;49.150;8.808;2023-03-23T01:34:01;1.00;;;0.90;;
9042;SDS011;4556;49.150;8.808;2023-03-23T01:36:45;1.77;;;0.90;;
9042;SDS011;4556;49.150;8.808;2023-03-23T01:39:14;1.00;;;0.83;;
9042;SDS011;4556;49.150;8.808;2023-03-23T01:41:41;1.53;;;1.03;;
9042;SDS011;4556;49.150;8.808;2023-03-23T01:45:07;1.20;;;0.90;;
9042;SDS011;4556;49.150;8.808;2023-03-23T01:47:13;1.40;;;0.83;;
9042;SDS011;4556;49.150;8.808;2023-03-23T01:49:42;1.60;;;0.80;;
9042;SDS011;4556;49.150;8.808;2023-03-23T01:52:22;2.07;;;1.00;;
9042;SDS011;4556;49.150;8.808;2023-03-23T01:54:54;1.37;;;1.20;;
9042;SDS011;4556;49.150;8.808;2023-03-23T01:57:29;1.83;;;0.90;;
9042;SDS011;4556;49.150;8.808;2023-03-23T01:59:57;1.00;;;0.90;;
9042;SDS011;4556;49.150;8.808;2023-03-23T02:02:32;3.17;;;0.90;;
9042;SDS011;4556;49.150;8.808;2023-03-23T02:05:14;1.10;;;0.90;;
9042;SDS011;4556;49.150;8.808;2023-03-23T02:08:00;0.70;;;0.70;;
9042;SDS011;4556;49.150;8.808;2023-03-23T02:10:30;1.53;;;0.80;;
9042;SDS011;4556;49.150;8.808;2023-03-23T02:13:06;1.93;;;1.00;;
9042;SDS011;4556;49.150;8.808;2023-03-23T02:15:38;1.33;;;0.90;;
9042;SDS011;4556;49.150;8.808;2023-03-23T02:18:16;1.67;;;0.80;;
9042;SDS011;4556;49.150;8.808;2023-03-23T02:20:58;1.07;;;0.93;;
9042;SDS011;4556;49.150;8.808;2023-03-23T02:26:57;2.00;;;0.80;;
9042;SDS011;4556;49.150;8.808;2023-03-23T02:32:27;1.43;;;0.90;;
9042;SDS011;4556;49.150;8.808;2023-03-23T02:35:23;1.83;;;0.80;;
9042;SDS011;4556;49.150;8.808;2023-03-23T02:37:58;1.30;;;0.90;;
9042;SDS011;4556;49.150;8.808;2023-03-23T02:40:30;2.53;;;1.07;;
9042;SDS011;4556;49.150;8.808;2023-03-23T02:43:12;1.53;;;1.00;;
9042;SDS011;4556;49.150;8.808;2023-03-23T02:45:56;1.97;;;1.00;;
9042;SDS011;4556;49.150;8.808;2023-03-23T02:48:27;1.93;;;1.10;;
9042;SDS011;4556;49.150;8.808;2023-03-23T02:50:57;3.67;;;1.20;;
9042;SDS011;4556;49.150;8.808;2023-03-23T02:53:33;1.17;;;1.00;;
9042;SDS011;4556;49.150;8.808;2023-03-23T02:56:18;1.80;;;1.13;;
9042;SDS011;4556;49.150;8.808;2023-03-23T02:58:48;2.23;;;1.10;;
9042;SDS011;4556;49.150;8.808;2023-03-23T03:01:16;1.20;;;0.80;;
9042;SDS011;4556;49.150;8.808;2023-03-23T03:04:21;3.37;;;1.10;;
9042;SDS011;4556;49.150;8.808;2023-03-23T03:07:06;2.87;;;1.03;;
9042;SDS011;4556;49.150;8.808;2023-03-23T03:09:46;1.43;;;0.80;;
9042;SDS011;4556;49.150;8.808;2023-03-23T03:12:18;2.07;;;1.10;;
9042;SDS011;4556;49.150;8.808;2023-03-23T03:14:57;2.40;;;1.10;;
9042;SDS011;4556;49.150;8.808;2023-03-23T03:17:33;2.10;;;0.97;;
9042;SDS011;4556;49.150;8.808;2023-03-23T03:20:08;2.87;;;0.93;;
9042;SDS011;4556;49.150;8.808;2023-03-23T03:22:41;2.10;;;1.00;;
9042;SDS011;4556;49.150;8.808;2023-03-23T03:25:14;1.30;;;1.00;;
9042;SDS011;4556;49.150;8.808;2023-03-23T03:27:43;1.60;;;1.03;;
9042;SDS011;4556;49.150;8.808;2023-03-23T03:30:19;1.50;;;1.10;;
9042;SDS011;4556;49.150;8.808;2023-03-23T03:32:51;1.40;;;0.90;;
9042;SDS011;4556;49.150;8.808;2023-03-23T03:35:42;1.23;;;1.03;;
9042;SDS011;4556;49.150;8.808;2023-03-23T03:38:12;3.53;;;1.10;;
9042;SDS011;4556;49.150;8.808;2023-03-23T03:40:42;1.87;;;1.10;;
9042;SDS011;4556;49.150;8.808;2023-03-23T03:43:09;1.50;;;0.90;;
9042;SDS011;4556;49.150;8.808;2023-03-23T03:45:38;1.03;;;0.83;;
9042;SDS011;4556;49.150;8.808;2023-03-23T03:48:07;2.03;;;1.10;;
9042;SDS011;4556;49.150;8.808;2023-03-23T03:50:35;1.23;;;1.13;;
9042;SDS011;4556;49.150;8.808;2023-03-23T03:56:03;1.33;;;0.93;;
9042;SDS011;4556;49.150;8.808;2023-03-23T03:58:36;1.90;;;1.20;;
9042;SDS011;4556;49.150;8.808;2023-03-23T04:01:03;1.90;;;1.00;;
9042;SDS011;4556;49.150;8.808;2023-03-23T04:03:30;2.00;;;1.10;;
9042;SDS011;4556;49.150;8.808;2023-03-23T04:05:57;1.47;;;1.00;;
9042;SDS011;4556;49.150;8.808;2023-03-23T04:08:25;1.60;;;0.90;;
9042;SDS011;4556;49.150;8.808;2023-03-23T04:10:54;1.47;;;1.30;;
9042;SDS011;4556;49.150;8.808;2023-03-23T04:13:22;2.60;;;1.10;;
9042;SDS011;4556;49.150;8.808;2023-03-23T04:15:49;2.80;;;1.10;;
9042;SDS011;4556;49.150;8.808;2023-03-23T04:18:16;2.43;;;1.20;;
9042;SDS011;4556;49.150;8.808;2023-03-23T04:20:44;1.70;;;1.00;;
9042;SDS011;4556;49.150;8.808;2023-03-23T04:23:18;1.57;;;1.10;;
9042;SDS011;4556;49.150;8.808;2023-03-23T04:25:47;1.10;;;0.90;;
9042;SDS011;4556;49.150;8.808;2023-03-23T04:28:28;1.13;;;0.90;;
9042;SDS011;4556;49.150;8.808;2023-03-23T04:30:58;1.33;;;1.00;;
9042;SDS011;4556;49.150;8.808;2023-03-23T04:33:28;1.30;;;0.90;;
9042;SDS011;4556;49.150;8.808;2023-03-23T04:36:12;2.10;;;1.23;;
9042;SDS011;4556;49.150;8.808;2023-03-23T04:38:41;1.70;;;0.93;;
9042;SDS011;4556;49.150;8.808;2023-03-23T04:41:08;1.23;;;1.10;;
9042;SDS011;4556;49.150;8.808;2023-03-23T04:43:36;3.47;;;1.23;;
9042;SDS011;4556;49.150;8.808;2023-03-23T04:46:08;1.43;;;1.10;;
9042;SDS011;4556;49.150;8.808;2023-03-23T04:48:44;1.23;;;1.13;;
9042;SDS011;4556;49.150;8.808;2023-03-23T04:51:16;2.83;;;1.20;;
9042;SDS011;4556;49.150;8.808;2023-03-23T04:53:57;2.97;;;1.33;;
9042;SDS011;4556;49.150;8.808;2023-03-23T04:56:30;1.10;;;1.00;;
9042;SDS011;4556;49.150;8.808;2023-03-23T04:58:59;2.37;;;1.20;;
9042;SDS011;4556;49.150;8.808;2023-03-23T05:01:26;1.20;;;0.93;;
9042;SDS011;4556;49.150;8.808;2023-03-23T05:03:54;4.90;;;1.10;;
9042;SDS011;4556;49.150;8.808;2023-03-23T05:06:25;1.93;;;1.50;;
9042;SDS011;4556;49.150;8.808;2023-03-23T05:08:58;1.53;;;1.10;;
9042;SDS011;4556;49.150;8.808;2023-03-23T05:11:31;3.13;;;1.20;;
9042;SDS011;4556;49.150;8.808;2023-03-23T05:14:18;2.27;;;1.33;;
9042;SDS011;4556;49.150;8.808;2023-03-23T05:16:48;1.27;;;1.17;;
9042;SDS011;4556;49.150;8.808;2023-03-23T05:19:18;1.47;;;1.30;;
9042;SDS011;4556;49.150;8.808;2023-03-23T05:21:59;1.90;;;1.30;;
9042;SDS011;4556;49.150;8.808;2023-03-23T05:24:28;2.43;;;1.20;;
9042;SDS011;4556;49.150;8.808;2023-03-23T05:26:57;2.27;;;1.00;;
9042;SDS011;4556;49.150;8.808;2023-03-23T05:29:26;1.60;;;1.07;;
9042;SDS011;4556;49.150;8.808;2023-03-23T05:31:57;1.70;;;1.03;;
9042;SDS011;4556;49.150;8.808;2023-03-23T05:34:25;2.53;;;1.30;;
9042;SDS011;4556;49.150;8.808;2023-03-23T05:37:19;1.37;;;1.20;;
9042;SDS011;4556;49.150;8.808;2023-03-23T05:39:46;1.63;;;1.10;;
9042;SDS011;4556;49.150;8.808;2023-03-23T05:42:27;1.17;;;1.07;;
9042;SDS011;4556;49.150;8.808;2023-03-23T05:47:55;1.60;;;1.07;;
9042;SDS011;4556;49.150;8.808;2023-03-23T05:50:23;3.13;;;1.43;;
9042;SDS011;4556;49.150;8.808;2023-03-23T05:52:49;1.83;;;1.20;;
9042;SDS011;4556;49.150;8.808;2023-03-23T05:55:38;1.40;;;1.30;;
9042;SDS011;4556;49.150;8.808;2023-03-23T05:58:12;3.57;;;1.50;;
9042;SDS011;4556;49.150;8.808;2023-03-23T06:00:41;1.70;;;1.33;;
9042;SDS011;4556;49.150;8.808;2023-03-23T06:03:10;1.13;;;1.03;;
9042;SDS011;4556;49.150;8.808;2023-03-23T06:05:42;3.03;;;1.30;;
9042;SDS011;4556;49.150;8.808;2023-03-23T06:08:10;1.60;;;1.30;;
9042;SDS011;4556;49.150;8.808;2023-03-23T06:10:52;1.40;;;1.20;;
9042;SDS011;4556;49.150;8.808;2023-03-23T06:13:20;2.00;;;1.07;;
9042;SDS011;4556;49.150;8.808;2023-03-23T06:15:49;3.03;;;1.20;;
9042;SDS011;4556;49.150;8.808;2023-03-23T06:18:22;1.80;;;1.03;;
9042;SDS011;4556;49.150;8.808;2023-03-23T06:20:49;1.53;;;1.00;;
9042;SDS011;4556;49.150;8.808;2023-03-23T06:23:17;2.13;;;1.20;;
9042;SDS011;4556;49.150;8.808;2023-03-23T06:25:45;2.50;;;1.10;;
9042;SDS011;4556;49.150;8.808;2023-03-23T06:28:36;2.17;;;1.40;;
9042;SDS011;4556;49.150;8.808;2023-03-23T06:31:05;1.83;;;1.20;;
9042;SDS011;4556;49.150;8.808;2023-03-23T06:33:33;3.33;;;1.97;;
9042;SDS011;4556;49.150;8.808;2023-03-23T06:36:01;1.97;;;1.63;;
9042;SDS011;4556;49.150;8.808;2023-03-23T06:38:31;1.47;;;1.20;;
9042;SDS011;4556;49.150;8.808;2023-03-23T06:41:02;2.53;;;1.40;;
9042;SDS011;4556;49.150;8.808;2023-03-23T06:43:29;2.10;;;1.43;;
9042;SDS011;4556;49.150;8.808;2023-03-23T06:46:04;2.60;;;1.40;;
9042;SDS011;4556;49.150;8.808;2023-03-23T06:48:58;2.00;;;1.40;;
9042;SDS011;4556;49.150;8.808;2023-03-23T06:51:25;2.63;;;1.70;;
9042;SDS011;4556;49.150;8.808;2023-03-23T06:53:54;5.33;;;2.83;;
9042;SDS011;4556;49.150;8.808;2023-03-23T06:56:37;5.93;;;2.87;;
9042;SDS011;4556;49.150;8.808;2023-03-23T06:59:07;2.57;;;1.93;;
9042;SDS011;4556;49.150;8.808;2023-03-23T07:01:41;5.13;;;3.00;;
9042;SDS011;4556;49.150;8.808;2023-03-23T07:06:52;4.33;;;2.67;;
9042;SDS011;4556;49.150;8.808;2023-03-23T07:09:19;5.60;;;3.37;;
9042;SDS011;4556;49.150;8.808;2023-03-23T07:11:52;6.73;;;4.00;;
9042;SDS011;4556;49.150;8.808;2023-03-23T07:14:33;6.03;;;3.40;;
9042;SDS011;4556;49.150;8.808;2023-03-23T07:17:00;3.57;;;2.33;;
9042;SDS011;4556;49.150;8.808;2023-03-23T07:19:57;7.80;;;4.80;;
9042;SDS011;4556;49.150;8.808;2023-03-23T07:22:27;6.67;;;4.33;;
9042;SDS011;4556;49.150;8.808;2023-03-23T07:24:56;3.87;;;3.20;;
9042;SDS011;4556;49.150;8.808;2023-03-23T07:27:23;3.57;;;2.60;;
9042;SDS011;4556;49.150;8.808;2023-03-23T07:29:51;4.07;;;3.53;;
9042;SDS011;4556;49.150;8.808;2023-03-23T07:32:18;5.10;;;2.60;;
9042;SDS011;4556;49.150;8.808;2023-03-23T07:34:45;4.10;;;1.50;;
9042;SDS011;4556;49.150;8.808;2023-03-23T07:40:16;1.77;;;1.53;;
9042;SDS011;4556;49.150;8.808;2023-03-23T07:42:46;2.63;;;1.70;;
9042;SDS011;4556;49.150;8.808;2023-03-23T07:45:18;3.37;;;1.73;;
9042;SDS011;4556;49.150;8.808;2023-03-23T07:47:47;3.20;;;1.83;;
9042;SDS011;4556;49.150;8.808;2023-03-23T07:50:14;2.50;;;1.40;;
9042;SDS011;4556;49.150;8.808;2023-03-23T07:52:43;2.00;;;1.43;;
9042;SDS011;4556;49.150;8.808;2023-03-23T07:55:11;2.33;;;1.57;;
9042;SDS011;4556;49.150;8.808;2023-03-23T07:57:42;1.90;;;1.60;;
9042;SDS011;4556;49.150;8.808;2023-03-23T08:00:10;3.10;;;2.00;;
9042;SDS011;4556;49.150;8.808;2023-03-23T08:02:44;3.67;;;1.70;;
9042;SDS011;4556;49.150;8.808;2023-03-23T08:05:11;2.67;;;1.70;;
9042;SDS011;4556;49.150;8.808;2023-03-23T08:07:40;2.63;;;1.50;;
9042;SDS011;4556;49.150;8.808;2023-03-23T08:10:09;1.97;;;1.73;;
9042;SDS011;4556;49.150;8.808;2023-03-23T08:12:38;2.33;;;1.40;;
9042;SDS011;4556;49.150;8.808;2023-03-23T08:15:07;2.87;;;1.63;;
9042;SDS011;4556;49.150;8.808;2023-03-23T08:17:37;2.00;;;1.70;;
9042;SDS011;4556;49.150;8.808;2023-03-23T08:20:06;3.00;;;1.70;;
9042;SDS011;4556;49.150;8.808;2023-03-23T08:22:37;2.37;;;1.90;;
9042;SDS011;4556;49.150;8.808;2023-03-23T08:25:06;2.80;;;1.90;;
9042;SDS011;4556;49.150;8.808;2023-03-23T08:27:37;2.90;;;2.07;;
9042;SDS011;4556;49.150;8.808;2023-03-23T08:30:08;2.40;;;2.00;;
9042;SDS011;4556;49.150;8.808;2023-03-23T08:32:37;1.53;;;1.43;;
9042;SDS011;4556;49.150;8.808;2023-03-23T08:35:05;2.40;;;1.97;;
9042;SDS011;4556;49.150;8.808;2023-03-23T08:37:34;2.77;;;1.90;;
9042;SDS011;4556;49.150;8.808;2023-03-23T08:40:01;2.97;;;1.87;;
9042;SDS011;4556;49.150;8.808;2023-03-23T08:42:36;3.13;;;1.77;;
9042;SDS011;4556;49.150;8.808;2023-03-23T08:45:04;3.87;;;2.20;;
9042;SDS011;4556;49.150;8.808;2023-03-23T08:47:33;2.77;;;1.90;;
9042;SDS011;4556;49.150;8.808;2023-03-23T08:50:00;5.13;;;3.50;;
9042;SDS011;4556;49.150;8.808;2023-03-23T08:52:28;7.20;;;5.17;;
9042;SDS011;4556;49.150;8.808;2023-03-23T08:54:56;3.67;;;2.10;;
9042;SDS011;4556;49.150;8.808;2023-03-23T08:57:23;4.10;;;2.30;;
9042;SDS011;4556;49.150;8.808;2023-03-23T08:59:52;7.97;;;4.80;;
9042;SDS011;4556;49.150;8.808;2023-03-23T09:02:25;8.33;;;5.20;;
9042;SDS011;4556;49.150;8.808;2023-03-23T09:04:52;7.77;;;4.90;;
9042;SDS011;4556;49.150;8.808;2023-03-23T09:07:19;4.27;;;3.07;;
9042;SDS011;4556;49.150;8.808;2023-03-23T09:09:46;6.07;;;3.90;;
9042;SDS011;4556;49.150;8.808;2023-03-23T09:12:14;4.77;;;2.80;;
9042;SDS011;4556;49.150;8.808;2023-03-23T09:14:41;4.70;;;2.73;;
9042;SDS011;4556;49.150;8.808;2023-03-23T09:17:10;2.60;;;2.37;;
9042;SDS011;4556;49.150;8.808;2023-03-23T09:19:37;5.03;;;2.40;;
9042;SDS011;4556;49.150;8.808;2023-03-23T09:22:04;2.37;;;2.00;;
9042;SDS011;4556;49.150;8.808;2023-03-23T09:24:31;4.63;;;2.70;;
9042;SDS011;4556;49.150;8.808;2023-03-23T09:26:58;3.53;;;2.30;;
9042;SDS011;4556;49.150;8.808;2023-03-23T09:29:25;1.93;;;1.73;;
9042;SDS011;4556;49.150;8.808;2023-03-23T09:31:53;4.97;;;2.70;;
9042;SDS011;4556;49.150;8.808;2023-03-23T09:34:22;6.17;;;3.10;;
9042;SDS011;4556;49.150;8.808;2023-03-23T09:36:49;4.67;;;1.93;;
9042;SDS011;4556;49.150;8.808;2023-03-23T09:39:17;3.13;;;2.00;;
9042;SDS011;4556;49.150;8.808;2023-03-23T09:41:58;4.80;;;1.87;;
9042;SDS011;4556;49.150;8.808;2023-03-23T09:44:45;4.13;;;1.93;;
9042;SDS011;4556;49.150;8.808;2023-03-23T09:47:25;2.07;;;1.60;;
9042;SDS011;4556;49.150;8.808;2023-03-23T09:50:04;2.20;;;1.73;;
9042;SDS011;4556;49.150;8.808;2023-03-23T09:52:37;2.70;;;2.00;;
9042;SDS011;4556;49.150;8.808;2023-03-23T09:55:10;2.87;;;2.20;;
9042;SDS011;4556;49.150;8.808;2023-03-23T09:57:43;3.17;;;2.10;;
9042;SDS011;4556;49.150;8.808;2023-03-23T10:00:18;4.00;;;2.50;;
9042;SDS011;4556;49.150;8.808;2023-03-23T10:02:49;3.13;;;2.23;;
9042;SDS011;4556;49.150;8.808;2023-03-23T10:05:28;4.00;;;1.80;;
9042;SDS011;4556;49.150;8.808;2023-03-23T10:07:58;2.30;;;1.90;;
9042;SDS011;4556;49.150;8.808;2023-03-23T10:10:30;2.07;;;1.50;;
9042;SDS011;4556;49.150;8.808;2023-03-23T10:13:47;3.77;;;1.63;;
9042;SDS011;4556;49.150;8.808;2023-03-23T10:15:59;2.40;;;1.60;;
9042;SDS011;4556;49.150;8.808;2023-03-23T10:18:30;2.07;;;1.37;;
9042;SDS011;4556;49.150;8.808;2023-03-23T10:21:02;2.17;;;1.30;;
9042;SDS011;4556;49.150;8.808;2023-03-23T10:23:35;1.53;;;1.20;;
9042;SDS011;4556;49.150;8.808;2023-03-23T10:26:11;3.00;;;1.57;;
9042;SDS011;4556;49.150;8.808;2023-03-23T10:28:46;3.30;;;1.60;;
9042;SDS011;4556;49.150;8.808;2023-03-23T10:31:19;3.17;;;1.30;;
9042;SDS011;4556;49.150;8.808;2023-03-23T10:33:49;2.00;;;1.40;;
9042;SDS011;4556;49.150;8.808;2023-03-23T10:36:21;1.93;;;1.23;;
9042;SDS011;4556;49.150;8.808;2023-03-23T10:38:53;3.17;;;1.43;;
9042;SDS011;4556;49.150;8.808;2023-03-23T10:41:35;3.50;;;1.50;;
9042;SDS011;4556;49.150;8.808;2023-03-23T10:44:16;2.13;;;1.20;;
9042;SDS011;4556;49.150;8.808;2023-03-23T10:46:55;2.30;;;1.33;;
9042;SDS011;4556;49.150;8.808;2023-03-23T10:49:43;1.57;;;1.33;;
9042;SDS011;4556;49.150;8.808;2023-03-23T10:55:01;2.03;;;1.50;;
9042;SDS011;4556;49.150;8.808;2023-03-23T10:57:32;1.30;;;1.20;;
9042;SDS011;4556;49.150;8.808;2023-03-23T11:00:03;3.33;;;1.50;;
9042;SDS011;4556;49.150;8.808;2023-03-23T11:02:43;2.67;;;1.53;;
9042;SDS011;4556;49.150;8.808;2023-03-23T11:05:15;2.13;;;1.30;;
9042;SDS011;4556;49.150;8.808;2023-03-23T11:07:50;3.03;;;1.53;;
9042;SDS011;4556;49.150;8.808;2023-03-23T11:10:35;1.60;;;1.40;;
9042;SDS011;4556;49.150;8.808;2023-03-23T11:13:03;2.80;;;1.60;;
9042;SDS011;4556;49.150;8.808;2023-03-23T11:15:35;2.33;;;1.37;;
9042;SDS011;4556;49.150;8.808;2023-03-23T11:18:10;1.83;;;1.43;;
9042;SDS011;4556;49.150;8.808;2023-03-23T11:20:55;2.70;;;1.40;;
9042;SDS011;4556;49.150;8.808;2023-03-23T11:23:36;2.03;;;1.40;;
9042;SDS011;4556;49.150;8.808;2023-03-23T11:26:32;3.00;;;1.50;;
9042;SDS011;4556;49.150;8.808;2023-03-23T11:29:05;1.40;;;1.17;;
9042;SDS011;4556;49.150;8.808;2023-03-23T11:31:43;1.20;;;1.10;;
9042;SDS011;4556;49.150;8.808;2023-03-23T11:34:14;2.73;;;1.50;;
9042;SDS011;4556;49.150;8.808;2023-03-23T11:36:47;1.40;;;1.23;;
9042;SDS011;4556;49.150;8.808;2023-03-23T11:39:32;3.53;;;1.80;;
9042;SDS011;4556;49.150;8.808;2023-03-23T11:42:17;1.87;;;1.30;;
9042;SDS011;4556;49.150;8.808;2023-03-23T11:44:46;1.43;;;1.23;;
9042;SDS011;4556;49.150;8.808;2023-03-23T11:47:24;1.50;;;1.40;;
9042;SDS011;4556;49.150;8.808;2023-03-23T11:50:00;2.17;;;1.37;;
9042;SDS011;4556;49.150;8.808;2023-03-23T11:52:45;2.60;;;1.70;;
9042;SDS011;4556;49.150;8.808;2023-03-23T11:58:31;3.30;;;1.80;;
9042;SDS011;4556;49.150;8.808;2023-03-23T12:01:00;2.33;;;1.50;;
9042;SDS011;4556;49.150;8.808;2023-03-23T12:03:39;1.87;;;1.43;;
9042;SDS011;4556;49.150;8.808;2023-03-23T12:06:37;1.60;;;1.50;;
9042;SDS011;4556;49.150;8.808;2023-03-23T12:09:17;1.67;;;1.40;;
9042;SDS011;4556;49.150;8.808;2023-03-23T12:15:09;3.00;;;1.90;;
9042;SDS011;4556;49.150;8.808;2023-03-23T12:17:58;4.27;;;1.40;;
9042;SDS011;4556;49.150;8.808;2023-03-23T12:20:50;1.60;;;1.40;;
9042;SDS011;4556;49.150;8.808;2023-03-23T12:23:32;3.37;;;1.50;;
9042;SDS011;4556;49.150;8.808;2023-03-23T12:32:06;2.53;;;1.40;;
9042;SDS011;4556;49.150;8.808;2023-03-23T12:35:01;2.67;;;2.03;;
9042;SDS011;4556;49.150;8.808;2023-03-23T12:40:51;3.57;;;1.40;;
9042;SDS011;4556;49.150;8.808;2023-03-23T12:43:44;1.83;;;1.30;;
9042;SDS011;4556;49.150;8.808;2023-03-23T12:46:23;1.83;;;1.50;;
9042;SDS011;4556;49.150;8.808;2023-03-23T12:52:08;3.60;;;1.63;;
9042;SDS011;4556;49.150;8.808;2023-03-23T12:55:05;2.73;;;1.57;;
9042;SDS011;4556;49.150;8.808;2023-03-23T12:58:03;1.63;;;1.50;;
9042;SDS011;4556;49.150;8.808;2023-03-23T13:01:07;2.40;;;1.83;;
9042;SDS011;4556;49.150;8.808;2023-03-23T13:03:56;4.73;;;1.33;;
9042;SDS011;4556;49.150;8.808;2023-03-23T13:06:27;2.47;;;1.50;;
9042;SDS011;4556;49.150;8.808;2023-03-23T13:08:59;1.57;;;1.30;;
9042;SDS011;4556;49.150;8.808;2023-03-23T13:11:32;1.90;;;1.37;;
9042;SDS011;4556;49.150;8.808;2023-03-23T13:14:03;1.30;;;1.20;;
9042;SDS011;4556;49.150;8.808;2023-03-23T13:16:42;1.73;;;1.30;;
9042;SDS011;4556;49.150;8.808;2023-03-23T13:19:15;3.43;;;1.60;;
9042;SDS011;4556;49.150;8.808;2023-03-23T13:21:52;1.60;;;1.50;;
9042;SDS011;4556;49.150;8.808;2023-03-23T13:24:26;5.80;;;1.57;;
9042;SDS011;4556;49.150;8.808;2023-03-23T13:26:56;2.13;;;1.73;;
9042;SDS011;4556;49.150;8.808;2023-03-23T13:29:26;3.97;;;1.90;;
9042;SDS011;4556;49.150;8.808;2023-03-23T13:32:04;1.83;;;1.33;;
9042;SDS011;4556;49.150;8.808;2023-03-23T13:34:34;2.57;;;1.60;;
9042;SDS011;4556;49.150;8.808;2023-03-23T13:37:05;2.87;;;2.50;;
9042;SDS011;4556;49.150;8.808;2023-03-23T13:39:37;3.83;;;2.17;;
9042;SDS011;4556;49.150;8.808;2023-03-23T13:42:18;2.80;;;1.70;;
9042;SDS011;4556;49.150;8.808;2023-03-23T13:45:04;3.13;;;2.20;;
9042;SDS011;4556;49.150;8.808;2023-03-23T13:47:38;2.80;;;1.97;;
9042;SDS011;4556;49.150;8.808;2023-03-23T13:50:10;2.90;;;2.07;;
9042;SDS011;4556;49.150;8.808;2023-03-23T13:52:46;4.00;;;2.00;;
9042;SDS011;4556;49.150;8.808;2023-03-23T13:55:20;3.03;;;1.80;;
9042;SDS011;4556;49.150;8.808;2023-03-23T13:57:55;2.37;;;1.60;;
9042;SDS011;4556;49.150;8.808;2023-03-23T14:00:25;2.43;;;1.97;;
9042;SDS011;4556;49.150;8.808;2023-03-23T14:03:17;2.60;;;1.63;;
9042;SDS011;4556;49.150;8.808;2023-03-23T14:06:02;2.83;;;1.90;;
9042;SDS011;4556;49.150;8.808;2023-03-23T14:08:40;2.50;;;1.87;;
9042;SDS011;4556;49.150;8.808;2023-03-23T14:11:11;2.10;;;1.70;;
9042;SDS011;4556;49.150;8.808;2023-03-23T14:13:42;2.77;;;2.13;;
9042;SDS011;4556;49.150;8.808;2023-03-23T14:16:16;4.27;;;2.30;;
9042;SDS011;4556;49.150;8.808;2023-03-23T14:18:51;3.50;;;2.10;;
9042;SDS011;4556;49.150;8.808;2023-03-23T14:21:34;4.30;;;1.70;;
9042;SDS011;4556;49.150;8.808;2023-03-23T14:24:06;3.23;;;2.10;;
9042;SDS011;4556;49.150;8.808;2023-03-23T14:26:36;2.53;;;2.00;;
9042;SDS011;4556;49.150;8.808;2023-03-23T14:29:05;3.73;;;2.40;;
9042;SDS011;4556;49.150;8.808;2023-03-23T14:31:32;3.20;;;2.20;;
9042;SDS011;4556;49.150;8.808;2023-03-23T14:34:02;2.30;;;2.10;;
9042;SDS011;4556;49.150;8.808;2023-03-23T14:36:33;3.20;;;2.30;;
9042;SDS011;4556;49.150;8.808;2023-03-23T14:39:04;3.00;;;2.33;;
9042;SDS011;4556;49.150;8.808;2023-03-23T14:41:38;4.00;;;2.47;;
9042;SDS011;4556;49.150;8.808;2023-03-23T14:44:08;4.77;;;2.60;;
9042;SDS011;4556;49.150;8.808;2023-03-23T14:46:40;3.87;;;2.70;;
9042;SDS011;4556;49.150;8.808;2023-03-23T14:49:10;2.23;;;2.03;;
9042;SDS011;4556;49.150;8.808;2023-03-23T14:51:46;2.40;;;2.10;;
9042;SDS011;4556;49.150;8.808;2023-03-23T14:54:18;2.83;;;2.10;;
9042;SDS011;4556;49.150;8.808;2023-03-23T14:56:49;2.80;;;2.10;;
9042;SDS011;4556;49.150;8.808;2023-03-23T14:59:16;3.90;;;2.53;;
9042;SDS011;4556;49.150;8.808;2023-03-23T15:01:47;4.43;;;2.60;;
9042;SDS011;4556;49.150;8.808;2023-03-23T15:04:17;4.17;;;2.40;;
9042;SDS011;4556;49.150;8.808;2023-03-23T15:06:47;4.13;;;2.77;;
9042;SDS011;4556;49.150;8.808;2023-03-23T15:09:20;5.20;;;3.37;;
9042;SDS011;4556;49.150;8.808;2023-03-23T15:11:51;4.97;;;3.90;;
9042;SDS011;4556;49.150;8.808;2023-03-23T15:14:22;5.00;;;3.87;;
9042;SDS011;4556;49.150;8.808;2023-03-23T15:16:52;5.50;;;3.87;;
9042;SDS011;4556;49.150;8.808;2023-03-23T15:19:22;5.70;;;3.77;;
9042;SDS011;4556;49.150;8.808;2023-03-23T15:21:53;7.23;;;4.80;;
9042;SDS011;4556;49.150;8.808;2023-03-23T15:24:26;4.20;;;3.33;;
9042;SDS011;4556;49.150;8.808;2023-03-23T15:27:03;5.00;;;3.07;;
9042;SDS011;4556;49.150;8.808;2023-03-23T15:29:48;3.17;;;2.50;;
9042;SDS011;4556;49.150;8.808;2023-03-23T15:32:21;4.80;;;2.80;;
9042;SDS011;4556;49.150;8.808;2023-03-23T15:34:50;3.57;;;2.97;;
9042;SDS011;4556;49.150;8.808;2023-03-23T15:37:19;3.93;;;2.50;;
9042;SDS011;4556;49.150;8.808;2023-03-23T15:39:51;3.40;;;2.33;;
9042;SDS011;4556;49.150;8.808;2023-03-23T15:42:20;2.77;;;2.17;;
9042;SDS011;4556;49.150;8.808;2023-03-23T15:44:56;3.40;;;2.20;;
9042;SDS011;4556;49.150;8.808;2023-03-23T15:47:36;2.30;;;2.00;;
9042;SDS011;4556;49.150;8.808;2023-03-23T15:50:08;2.57;;;1.70;;
9042;SDS011;4556;49.150;8.808;2023-03-23T15:52:39;2.40;;;1.70;;
9042;SDS011;4556;49.150;8.808;2023-03-23T15:55:18;2.90;;;1.90;;
9042;SDS011;4556;49.150;8.808;2023-03-23T15:57:51;1.97;;;1.57;;
9042;SDS011;4556;49.150;8.808;2023-03-23T16:00:19;2.30;;;1.77;;
9042;SDS011;4556;49.150;8.808;2023-03-23T16:02:48;2.60;;;1.83;;
9042;SDS011;4556;49.150;8.808;2023-03-23T16:05:19;2.80;;;1.93;;
9042;SDS011;4556;49.150;8.808;2023-03-23T16:07:46;3.80;;;2.27;;
9042;SDS011;4556;49.150;8.808;2023-03-23T16:10:14;2.60;;;2.07;;
9042;SDS011;4556;49.150;8.808;2023-03-23T16:12:45;2.90;;;2.10;;
9042;SDS011;4556;49.150;8.808;2023-03-23T16:15:12;2.77;;;1.90;;
9042;SDS011;4556;49.150;8.808;2023-03-23T16:17:41;1.90;;;1.80;;
9042;SDS011;4556;49.150;8.808;2023-03-23T16:20:12;3.97;;;2.23;;
9042;SDS011;4556;49.150;8.808;2023-03-23T16:22:40;2.97;;;2.27;;
9042;SDS011;4556;49.150;8.808;2023-03-23T16:25:08;2.70;;;1.80;;
9042;SDS011;4556;49.150;8.808;2023-03-23T16:27:36;2.30;;;1.80;;
9042;SDS011;4556;49.150;8.808;2023-03-23T16:30:10;2.30;;;2.10;;
9042;SDS011;4556;49.150;8.808;2023-03-23T16:32:40;3.00;;;2.20;;
9042;SDS011;4556;49.150;8.808;2023-03-23T16:35:08;2.63;;;2.27;;
9042;SDS011;4556;49.150;8.808;2023-03-23T16:37:35;2.87;;;2.50;;